sensor_id;sensor_type;location;lat;lon;timestamp;P1;durP1;ratioP1;P2;durP2;ratioP2
71856;SDS011;63344;46.980;28.882;2024-03-02T00:00:57;28.80;;;12.50;;
71856;SDS011;63344;46.980;28.882;2024-03-02T00:03:44;27.25;;;12.40;;
71856;SDS011;63344;46.980;28.882;2024-03-02T00:06:12;24.73;;;12.40;;
71856;SDS011;63344;46.980;28.882;2024-03-02T00:08:39;27.00;;;11.80;;
71856;SDS011;63344;46.980;28.882;2024-03-02T00:11:07;23.55;;;11.23;;
71856;SDS011;63344;46.980;28.882;2024-03-02T00:13:35;22.17;;;11.18;;
71856;SDS011;63344;46.980;28.882;2024-03-02T00:16:04;25.58;;;11.82;;
71856;SDS011;63344;46.980;28.882;2024-03-02T00:18:33;30.27;;;11.60;;
71856;SDS011;63344;46.980;28.882;2024-03-02T00:21:02;29.55;;;12.68;;
71856;SDS011;63344;46.980;28.882;2024-03-02T00:23:30;28.48;;;12.38;;
71856;SDS011;63344;46.980;28.882;2024-03-02T00:25:58;27.15;;;11.88;;
71856;SDS011;63344;46.980;28.882;2024-03-02T00:28:34;31.55;;;12.05;;
71856;SDS011;63344;46.980;28.882;2024-03-02T00:31:04;26.33;;;13.30;;
71856;SDS011;63344;46.980;28.882;2024-03-02T00:33:51;25.02;;;11.65;;
71856;SDS011;63344;46.980;28.882;2024-03-02T00:36:25;25.48;;;12.65;;
71856;SDS011;63344;46.980;28.882;2024-03-02T00:39:00;28.20;;;11.75;;
71856;SDS011;63344;46.980;28.882;2024-03-02T00:41:28;25.63;;;11.48;;
71856;SDS011;63344;46.980;28.882;2024-03-02T00:44:02;25.98;;;10.88;;
71856;SDS011;63344;46.980;28.882;2024-03-02T00:46:37;25.45;;;10.88;;
71856;SDS011;63344;46.980;28.882;2024-03-02T00:49:18;23.05;;;11.38;;
71856;SDS011;63344;46.980;28.882;2024-03-02T00:51:49;25.48;;;11.25;;
71856;SDS011;63344;46.980;28.882;2024-03-02T00:54:20;28.02;;;12.07;;
71856;SDS011;63344;46.980;28.882;2024-03-02T00:56:51;23.60;;;11.23;;
71856;SDS011;63344;46.980;28.882;2024-03-02T00:59:26;24.77;;;11.68;;
71856;SDS011;63344;46.980;28.882;2024-03-02T01:01:53;22.90;;;10.25;;
71856;SDS011;63344;46.980;28.882;2024-03-02T01:04:21;24.20;;;11.07;;
71856;SDS011;63344;46.980;28.882;2024-03-02T01:06:48;25.55;;;11.50;;
71856;SDS011;63344;46.980;28.882;2024-03-02T01:09:16;27.33;;;12.23;;
71856;SDS011;63344;46.980;28.882;2024-03-02T01:11:44;27.77;;;11.35;;
71856;SDS011;63344;46.980;28.882;2024-03-02T01:14:16;25.90;;;11.00;;
71856;SDS011;63344;46.980;28.882;2024-03-02T01:16:46;25.48;;;11.50;;
71856;SDS011;63344;46.980;28.882;2024-03-02T01:19:15;21.60;;;10.20;;
71856;SDS011;63344;46.980;28.882;2024-03-02T01:21:42;27.13;;;11.25;;
71856;SDS011;63344;46.980;28.882;2024-03-02T01:24:10;21.83;;;10.35;;
71856;SDS011;63344;46.980;28.882;2024-03-02T01:26:37;23.27;;;11.18;;
71856;SDS011;63344;46.980;28.882;2024-03-02T01:29:05;26.85;;;10.93;;
71856;SDS011;63344;46.980;28.882;2024-03-02T01:31:33;32.58;;;11.73;;
71856;SDS011;63344;46.980;28.882;2024-03-02T01:34:00;24.27;;;11.18;;
71856;SDS011;63344;46.980;28.882;2024-03-02T01:36:29;26.20;;;12.00;;
71856;SDS011;63344;46.980;28.882;2024-03-02T01:38:57;24.55;;;11.45;;
71856;SDS011;63344;46.980;28.882;2024-03-02T01:41:24;27.88;;;11.48;;
71856;SDS011;63344;46.980;28.882;2024-03-02T01:43:55;26.50;;;11.40;;
71856;SDS011;63344;46.980;28.882;2024-03-02T01:46:22;27.30;;;11.95;;
71856;SDS011;63344;46.980;28.882;2024-03-02T01:48:49;25.92;;;11.32;;
71856;SDS011;63344;46.980;28.882;2024-03-02T01:51:17;28.48;;;11.88;;
71856;SDS011;63344;46.980;28.882;2024-03-02T01:53:58;26.73;;;10.70;;
71856;SDS011;63344;46.980;28.882;2024-03-02T01:56:26;26.90;;;11.95;;
71856;SDS011;63344;46.980;28.882;2024-03-02T01:58:54;24.02;;;11.48;;
71856;SDS011;63344;46.980;28.882;2024-03-02T02:01:21;27.50;;;11.30;;
71856;SDS011;63344;46.980;28.882;2024-03-02T02:03:50;27.88;;;11.05;;
71856;SDS011;63344;46.980;28.882;2024-03-02T02:06:18;24.65;;;11.63;;
71856;SDS011;63344;46.980;28.882;2024-03-02T02:08:47;25.38;;;11.55;;
71856;SDS011;63344;46.980;28.882;2024-03-02T02:11:15;25.35;;;11.45;;
71856;SDS011;63344;46.980;28.882;2024-03-02T02:13:44;27.58;;;10.93;;
71856;SDS011;63344;46.980;28.882;2024-03-02T02:16:11;24.27;;;11.48;;
71856;SDS011;63344;46.980;28.882;2024-03-02T02:18:38;25.75;;;12.13;;
71856;SDS011;63344;46.980;28.882;2024-03-02T02:21:05;25.45;;;11.50;;
71856;SDS011;63344;46.980;28.882;2024-03-02T02:23:33;37.00;;;13.32;;
71856;SDS011;63344;46.980;28.882;2024-03-02T02:26:00;28.83;;;11.63;;
71856;SDS011;63344;46.980;28.882;2024-03-02T02:28:32;29.65;;;13.40;;
71856;SDS011;63344;46.980;28.882;2024-03-02T02:31:00;24.23;;;12.35;;
71856;SDS011;63344;46.980;28.882;2024-03-02T02:33:28;25.60;;;11.60;;
71856;SDS011;63344;46.980;28.882;2024-03-02T02:35:57;29.27;;;11.55;;
71856;SDS011;63344;46.980;28.882;2024-03-02T02:38:26;31.58;;;12.38;;
71856;SDS011;63344;46.980;28.882;2024-03-02T02:41:03;28.58;;;12.35;;
71856;SDS011;63344;46.980;28.882;2024-03-02T02:43:30;25.70;;;11.80;;
71856;SDS011;63344;46.980;28.882;2024-03-02T02:45:58;22.80;;;10.90;;
71856;SDS011;63344;46.980;28.882;2024-03-02T02:48:25;26.17;;;12.48;;
71856;SDS011;63344;46.980;28.882;2024-03-02T02:50:52;29.58;;;13.07;;
71856;SDS011;63344;46.980;28.882;2024-03-02T02:53:20;28.00;;;12.75;;
71856;SDS011;63344;46.980;28.882;2024-03-02T02:55:47;28.98;;;12.85;;
71856;SDS011;63344;46.980;28.882;2024-03-02T02:58:14;27.52;;;12.75;;
71856;SDS011;63344;46.980;28.882;2024-03-02T03:00:41;28.52;;;11.55;;
71856;SDS011;63344;46.980;28.882;2024-03-02T03:03:09;31.58;;;12.10;;
71856;SDS011;63344;46.980;28.882;2024-03-02T03:05:36;31.15;;;13.05;;
71856;SDS011;63344;46.980;28.882;2024-03-02T03:08:04;29.60;;;11.77;;
71856;SDS011;63344;46.980;28.882;2024-03-02T03:10:31;33.80;;;15.52;;
71856;SDS011;63344;46.980;28.882;2024-03-02T03:13:01;54.25;;;26.55;;
71856;SDS011;63344;46.980;28.882;2024-03-02T03:15:29;54.85;;;27.70;;
71856;SDS011;63344;46.980;28.882;2024-03-02T03:17:56;37.25;;;19.52;;
71856;SDS011;63344;46.980;28.882;2024-03-02T03:20:24;42.33;;;17.25;;
71856;SDS011;63344;46.980;28.882;2024-03-02T03:22:51;31.92;;;15.45;;
71856;SDS011;63344;46.980;28.882;2024-03-02T03:25:20;29.20;;;12.88;;
71856;SDS011;63344;46.980;28.882;2024-03-02T03:27:50;33.75;;;15.13;;
71856;SDS011;63344;46.980;28.882;2024-03-02T03:30:19;27.20;;;13.60;;
71856;SDS011;63344;46.980;28.882;2024-03-02T03:32:47;28.08;;;12.25;;
71856;SDS011;63344;46.980;28.882;2024-03-02T03:35:17;28.98;;;12.15;;
71856;SDS011;63344;46.980;28.882;2024-03-02T03:37:45;25.83;;;11.20;;
71856;SDS011;63344;46.980;28.882;2024-03-02T03:40:12;32.67;;;13.57;;
71856;SDS011;63344;46.980;28.882;2024-03-02T03:42:41;31.17;;;13.05;;
71856;SDS011;63344;46.980;28.882;2024-03-02T03:45:08;32.08;;;14.57;;
71856;SDS011;63344;46.980;28.882;2024-03-02T03:47:38;30.88;;;12.95;;
71856;SDS011;63344;46.980;28.882;2024-03-02T03:50:06;40.47;;;15.38;;
71856;SDS011;63344;46.980;28.882;2024-03-02T03:52:36;37.10;;;14.52;;
71856;SDS011;63344;46.980;28.882;2024-03-02T03:55:03;28.10;;;13.27;;
71856;SDS011;63344;46.980;28.882;2024-03-02T03:57:33;37.60;;;14.75;;
71856;SDS011;63344;46.980;28.882;2024-03-02T04:00:00;32.50;;;12.88;;
71856;SDS011;63344;46.980;28.882;2024-03-02T04:02:28;31.00;;;12.27;;
71856;SDS011;63344;46.980;28.882;2024-03-02T04:04:55;35.58;;;13.15;;
71856;SDS011;63344;46.980;28.882;2024-03-02T04:07:23;27.50;;;11.38;;
71856;SDS011;63344;46.980;28.882;2024-03-02T04:09:50;28.80;;;12.07;;
71856;SDS011;63344;46.980;28.882;2024-03-02T04:12:17;36.90;;;12.68;;
71856;SDS011;63344;46.980;28.882;2024-03-02T04:14:45;22.40;;;10.07;;
71856;SDS011;63344;46.980;28.882;2024-03-02T04:17:12;26.45;;;10.70;;
71856;SDS011;63344;46.980;28.882;2024-03-02T04:19:41;29.17;;;11.73;;
71856;SDS011;63344;46.980;28.882;2024-03-02T04:22:08;29.27;;;11.18;;
71856;SDS011;63344;46.980;28.882;2024-03-02T04:24:46;22.90;;;11.02;;
71856;SDS011;63344;46.980;28.882;2024-03-02T04:27:14;26.73;;;11.82;;
71856;SDS011;63344;46.980;28.882;2024-03-02T04:29:41;28.83;;;11.15;;
71856;SDS011;63344;46.980;28.882;2024-03-02T04:32:09;25.60;;;10.77;;
71856;SDS011;63344;46.980;28.882;2024-03-02T04:34:36;26.25;;;11.07;;
71856;SDS011;63344;46.980;28.882;2024-03-02T04:37:04;26.27;;;12.35;;
71856;SDS011;63344;46.980;28.882;2024-03-02T04:39:34;28.27;;;12.05;;
71856;SDS011;63344;46.980;28.882;2024-03-02T04:42:04;32.72;;;13.18;;
71856;SDS011;63344;46.980;28.882;2024-03-02T04:44:57;25.00;;;12.02;;
71856;SDS011;63344;46.980;28.882;2024-03-02T04:47:40;24.45;;;10.73;;
71856;SDS011;63344;46.980;28.882;2024-03-02T04:50:40;25.80;;;9.90;;
71856;SDS011;63344;46.980;28.882;2024-03-02T04:53:19;14.20;;;6.57;;
71856;SDS011;63344;46.980;28.882;2024-03-02T04:55:50;17.48;;;6.97;;
71856;SDS011;63344;46.980;28.882;2024-03-02T04:58:52;19.80;;;7.85;;
71856;SDS011;63344;46.980;28.882;2024-03-02T05:01:21;20.05;;;7.95;;
71856;SDS011;63344;46.980;28.882;2024-03-02T05:04:23;22.30;;;8.38;;
71856;SDS011;63344;46.980;28.882;2024-03-02T05:29:05;21.88;;;8.65;;
71856;SDS011;63344;46.980;28.882;2024-03-02T05:47:15;23.17;;;9.40;;
71856;SDS011;63344;46.980;28.882;2024-03-02T05:50:20;22.67;;;10.48;;
71856;SDS011;63344;46.980;28.882;2024-03-02T05:53:01;24.75;;;10.32;;
71856;SDS011;63344;46.980;28.882;2024-03-02T05:55:58;17.83;;;7.30;;
71856;SDS011;63344;46.980;28.882;2024-03-02T05:58:43;22.45;;;8.95;;
71856;SDS011;63344;46.980;28.882;2024-03-02T06:01:27;26.77;;;11.10;;
71856;SDS011;63344;46.980;28.882;2024-03-02T06:04:00;17.55;;;8.98;;
71856;SDS011;63344;46.980;28.882;2024-03-02T06:06:27;25.23;;;9.02;;
71856;SDS011;63344;46.980;28.882;2024-03-02T06:08:57;21.92;;;10.32;;
71856;SDS011;63344;46.980;28.882;2024-03-02T06:11:24;25.83;;;10.05;;
71856;SDS011;63344;46.980;28.882;2024-03-02T06:13:56;17.73;;;8.30;;
71856;SDS011;63344;46.980;28.882;2024-03-02T06:16:25;25.67;;;10.52;;
71856;SDS011;63344;46.980;28.882;2024-03-02T06:18:54;28.73;;;10.32;;
71856;SDS011;63344;46.980;28.882;2024-03-02T06:24:04;23.13;;;10.73;;
71856;SDS011;63344;46.980;28.882;2024-03-02T06:26:33;23.08;;;9.77;;
71856;SDS011;63344;46.980;28.882;2024-03-02T06:29:03;21.48;;;9.07;;
71856;SDS011;63344;46.980;28.882;2024-03-02T06:31:30;21.38;;;9.93;;
71856;SDS011;63344;46.980;28.882;2024-03-02T06:33:58;30.20;;;11.88;;
71856;SDS011;63344;46.980;28.882;2024-03-02T06:36:40;21.15;;;9.57;;
71856;SDS011;63344;46.980;28.882;2024-03-02T06:42:36;28.92;;;11.68;;
71856;SDS011;63344;46.980;28.882;2024-03-02T07:06:02;23.40;;;9.70;;
71856;SDS011;63344;46.980;28.882;2024-03-02T07:08:59;19.40;;;8.75;;
71856;SDS011;63344;46.980;28.882;2024-03-02T07:20:05;29.42;;;12.48;;
71856;SDS011;63344;46.980;28.882;2024-03-02T07:23:42;27.55;;;11.05;;
71856;SDS011;63344;46.980;28.882;2024-03-02T07:51:05;24.08;;;11.52;;
71856;SDS011;63344;46.980;28.882;2024-03-02T07:55:07;33.75;;;13.30;;
71856;SDS011;63344;46.980;28.882;2024-03-02T08:33:27;20.63;;;8.32;;
71856;SDS011;63344;46.980;28.882;2024-03-02T08:50:38;23.75;;;9.50;;
71856;SDS011;63344;46.980;28.882;2024-03-02T08:53:06;30.20;;;13.55;;
71856;SDS011;63344;46.980;28.882;2024-03-02T08:55:34;24.65;;;12.32;;
71856;SDS011;63344;46.980;28.882;2024-03-02T08:58:05;35.78;;;13.27;;
71856;SDS011;63344;46.980;28.882;2024-03-02T09:00:33;28.02;;;14.40;;
71856;SDS011;63344;46.980;28.882;2024-03-02T09:03:01;30.30;;;12.40;;
71856;SDS011;63344;46.980;28.882;2024-03-02T09:05:29;35.97;;;15.18;;
71856;SDS011;63344;46.980;28.882;2024-03-02T09:07:59;35.08;;;14.70;;
71856;SDS011;63344;46.980;28.882;2024-03-02T09:10:26;34.55;;;14.30;;
71856;SDS011;63344;46.980;28.882;2024-03-02T09:12:55;25.90;;;10.48;;
71856;SDS011;63344;46.980;28.882;2024-03-02T09:15:22;35.83;;;15.85;;
71856;SDS011;63344;46.980;28.882;2024-03-02T09:17:51;26.13;;;11.38;;
71856;SDS011;63344;46.980;28.882;2024-03-02T09:20:32;24.23;;;11.95;;
71856;SDS011;63344;46.980;28.882;2024-03-02T09:23:00;25.55;;;12.25;;
71856;SDS011;63344;46.980;28.882;2024-03-02T09:25:27;25.85;;;12.02;;
71856;SDS011;63344;46.980;28.882;2024-03-02T09:27:54;26.30;;;12.20;;
71856;SDS011;63344;46.980;28.882;2024-03-02T09:30:22;31.65;;;12.52;;
71856;SDS011;63344;46.980;28.882;2024-03-02T09:32:51;25.15;;;11.45;;
71856;SDS011;63344;46.980;28.882;2024-03-02T09:38:12;23.00;;;9.82;;
71856;SDS011;63344;46.980;28.882;2024-03-02T09:40:41;23.50;;;9.77;;
71856;SDS011;63344;46.980;28.882;2024-03-02T09:43:09;13.60;;;7.70;;
71856;SDS011;63344;46.980;28.882;2024-03-02T09:45:38;27.15;;;9.00;;
71856;SDS011;63344;46.980;28.882;2024-03-02T09:48:06;15.32;;;6.82;;
71856;SDS011;63344;46.980;28.882;2024-03-02T09:50:33;25.15;;;9.70;;
71856;SDS011;63344;46.980;28.882;2024-03-02T09:53:01;23.13;;;12.13;;
71856;SDS011;63344;46.980;28.882;2024-03-02T09:55:29;23.92;;;10.38;;
71856;SDS011;63344;46.980;28.882;2024-03-02T09:57:59;20.50;;;9.27;;
71856;SDS011;63344;46.980;28.882;2024-03-02T10:00:41;20.05;;;8.43;;
71856;SDS011;63344;46.980;28.882;2024-03-02T10:03:12;28.52;;;11.65;;
71856;SDS011;63344;46.980;28.882;2024-03-02T10:05:40;21.83;;;9.02;;
71856;SDS011;63344;46.980;28.882;2024-03-02T10:08:10;26.75;;;10.23;;
71856;SDS011;63344;46.980;28.882;2024-03-02T10:10:38;25.05;;;10.98;;
71856;SDS011;63344;46.980;28.882;2024-03-02T10:13:12;21.98;;;9.85;;
71856;SDS011;63344;46.980;28.882;2024-03-02T10:15:40;21.40;;;10.60;;
71856;SDS011;63344;46.980;28.882;2024-03-02T10:18:32;13.88;;;5.68;;
71856;SDS011;63344;46.980;28.882;2024-03-02T10:21:13;26.52;;;9.40;;
71856;SDS011;63344;46.980;28.882;2024-03-02T10:23:52;28.95;;;11.77;;
71856;SDS011;63344;46.980;28.882;2024-03-02T10:26:52;19.25;;;8.30;;
71856;SDS011;63344;46.980;28.882;2024-03-02T10:29:48;26.67;;;11.27;;
71856;SDS011;63344;46.980;28.882;2024-03-02T10:32:17;13.50;;;6.82;;
71856;SDS011;63344;46.980;28.882;2024-03-02T10:34:47;24.40;;;10.40;;
71856;SDS011;63344;46.980;28.882;2024-03-02T10:37:19;17.02;;;8.50;;
71856;SDS011;63344;46.980;28.882;2024-03-02T10:39:51;23.25;;;9.50;;
71856;SDS011;63344;46.980;28.882;2024-03-02T10:42:19;17.42;;;7.13;;
71856;SDS011;63344;46.980;28.882;2024-03-02T10:44:46;29.38;;;12.25;;
71856;SDS011;63344;46.980;28.882;2024-03-02T10:47:15;24.77;;;10.25;;
71856;SDS011;63344;46.980;28.882;2024-03-02T10:49:46;21.67;;;8.48;;
71856;SDS011;63344;46.980;28.882;2024-03-02T10:52:17;25.75;;;9.48;;
71856;SDS011;63344;46.980;28.882;2024-03-02T10:54:45;17.00;;;7.53;;
71856;SDS011;63344;46.980;28.882;2024-03-02T10:57:12;21.55;;;10.35;;
71856;SDS011;63344;46.980;28.882;2024-03-02T10:59:51;18.13;;;8.63;;
71856;SDS011;63344;46.980;28.882;2024-03-02T11:04:56;14.15;;;7.28;;
71856;SDS011;63344;46.980;28.882;2024-03-02T11:07:29;17.63;;;9.38;;
71856;SDS011;63344;46.980;28.882;2024-03-02T11:10:18;16.73;;;6.80;;
71856;SDS011;63344;46.980;28.882;2024-03-02T11:12:53;17.60;;;8.23;;
71856;SDS011;63344;46.980;28.882;2024-03-02T11:15:28;13.90;;;6.40;;
71856;SDS011;63344;46.980;28.882;2024-03-02T11:17:57;22.67;;;10.10;;
71856;SDS011;63344;46.980;28.882;2024-03-02T11:20:25;23.70;;;9.18;;
71856;SDS011;63344;46.980;28.882;2024-03-02T11:22:53;17.23;;;7.30;;
71856;SDS011;63344;46.980;28.882;2024-03-02T11:25:25;15.10;;;7.07;;
71856;SDS011;63344;46.980;28.882;2024-03-02T11:33:00;16.67;;;6.63;;
71856;SDS011;63344;46.980;28.882;2024-03-02T11:35:36;20.25;;;9.05;;
71856;SDS011;63344;46.980;28.882;2024-03-02T11:38:10;20.08;;;8.30;;
71856;SDS011;63344;46.980;28.882;2024-03-02T11:40:41;17.55;;;7.97;;
71856;SDS011;63344;46.980;28.882;2024-03-02T11:43:09;17.48;;;7.68;;
71856;SDS011;63344;46.980;28.882;2024-03-02T11:45:39;21.63;;;9.00;;
71856;SDS011;63344;46.980;28.882;2024-03-02T11:48:14;19.13;;;9.57;;
71856;SDS011;63344;46.980;28.882;2024-03-02T11:50:49;24.40;;;8.48;;
71856;SDS011;63344;46.980;28.882;2024-03-02T11:53:20;14.55;;;5.38;;
71856;SDS011;63344;46.980;28.882;2024-03-02T11:55:50;25.15;;;9.13;;
71856;SDS011;63344;46.980;28.882;2024-03-02T11:58:22;20.67;;;8.73;;
71856;SDS011;63344;46.980;28.882;2024-03-02T12:00:54;21.80;;;10.40;;
71856;SDS011;63344;46.980;28.882;2024-03-02T12:03:22;23.75;;;10.10;;
71856;SDS011;63344;46.980;28.882;2024-03-02T12:05:53;16.23;;;5.55;;
71856;SDS011;63344;46.980;28.882;2024-03-02T12:08:21;17.65;;;8.73;;
71856;SDS011;63344;46.980;28.882;2024-03-02T12:10:58;19.67;;;9.20;;
71856;SDS011;63344;46.980;28.882;2024-03-02T12:13:28;21.73;;;10.40;;
71856;SDS011;63344;46.980;28.882;2024-03-02T12:15:56;29.85;;;8.45;;
71856;SDS011;63344;46.980;28.882;2024-03-02T12:18:27;19.42;;;8.38;;
71856;SDS011;63344;46.980;28.882;2024-03-02T12:20:56;27.75;;;9.77;;
71856;SDS011;63344;46.980;28.882;2024-03-02T12:23:25;24.35;;;10.50;;
71856;SDS011;63344;46.980;28.882;2024-03-02T12:25:56;19.52;;;9.15;;
71856;SDS011;63344;46.980;28.882;2024-03-02T12:28:24;22.15;;;9.18;;
71856;SDS011;63344;46.980;28.882;2024-03-02T12:30:51;20.17;;;8.65;;
71856;SDS011;63344;46.980;28.882;2024-03-02T12:33:20;20.33;;;8.13;;
71856;SDS011;63344;46.980;28.882;2024-03-02T12:36:09;16.60;;;8.02;;
71856;SDS011;63344;46.980;28.882;2024-03-02T12:39:00;27.50;;;10.50;;
71856;SDS011;63344;46.980;28.882;2024-03-02T12:44:09;23.25;;;9.57;;
71856;SDS011;63344;46.980;28.882;2024-03-02T12:46:37;13.57;;;6.78;;
71856;SDS011;63344;46.980;28.882;2024-03-02T12:49:07;12.15;;;6.38;;
71856;SDS011;63344;46.980;28.882;2024-03-02T12:51:37;14.60;;;7.05;;
71856;SDS011;63344;46.980;28.882;2024-03-02T12:54:10;17.90;;;8.38;;
71856;SDS011;63344;46.980;28.882;2024-03-02T12:56:54;17.75;;;7.45;;
71856;SDS011;63344;46.980;28.882;2024-03-02T12:59:23;24.15;;;6.55;;
71856;SDS011;63344;46.980;28.882;2024-03-02T13:01:54;20.70;;;9.70;;
71856;SDS011;63344;46.980;28.882;2024-03-02T13:04:24;14.95;;;6.70;;
71856;SDS011;63344;46.980;28.882;2024-03-02T13:06:53;21.60;;;8.63;;
71856;SDS011;63344;46.980;28.882;2024-03-02T13:09:23;17.98;;;6.53;;
71856;SDS011;63344;46.980;28.882;2024-03-02T13:11:51;24.23;;;9.38;;
71856;SDS011;63344;46.980;28.882;2024-03-02T13:14:18;21.05;;;9.40;;
71856;SDS011;63344;46.980;28.882;2024-03-02T13:16:48;24.58;;;8.48;;
71856;SDS011;63344;46.980;28.882;2024-03-02T13:19:19;14.85;;;6.60;;
71856;SDS011;63344;46.980;28.882;2024-03-02T13:21:47;16.70;;;8.02;;
71856;SDS011;63344;46.980;28.882;2024-03-02T13:24:15;9.75;;;4.68;;
71856;SDS011;63344;46.980;28.882;2024-03-02T13:26:43;24.67;;;8.88;;
71856;SDS011;63344;46.980;28.882;2024-03-02T13:29:10;11.68;;;4.95;;
71856;SDS011;63344;46.980;28.882;2024-03-02T13:31:37;15.27;;;7.60;;
71856;SDS011;63344;46.980;28.882;2024-03-02T13:34:07;12.45;;;4.80;;
71856;SDS011;63344;46.980;28.882;2024-03-02T13:36:36;18.00;;;6.15;;
71856;SDS011;63344;46.980;28.882;2024-03-02T13:39:03;12.27;;;6.13;;
71856;SDS011;63344;46.980;28.882;2024-03-02T13:43:59;15.65;;;6.60;;
71856;SDS011;63344;46.980;28.882;2024-03-02T13:46:28;22.02;;;8.73;;
71856;SDS011;63344;46.980;28.882;2024-03-02T13:48:55;19.52;;;8.48;;
71856;SDS011;63344;46.980;28.882;2024-03-02T13:51:52;21.08;;;9.93;;
71856;SDS011;63344;46.980;28.882;2024-03-02T13:54:19;19.90;;;9.43;;
71856;SDS011;63344;46.980;28.882;2024-03-02T13:56:49;20.95;;;8.98;;
71856;SDS011;63344;46.980;28.882;2024-03-02T13:59:16;18.70;;;8.35;;
71856;SDS011;63344;46.980;28.882;2024-03-02T14:01:44;19.33;;;9.60;;
71856;SDS011;63344;46.980;28.882;2024-03-02T14:04:11;20.55;;;9.38;;
71856;SDS011;63344;46.980;28.882;2024-03-02T14:06:39;15.18;;;7.07;;
71856;SDS011;63344;46.980;28.882;2024-03-02T14:09:07;11.10;;;5.68;;
71856;SDS011;63344;46.980;28.882;2024-03-02T14:11:34;17.13;;;8.45;;
71856;SDS011;63344;46.980;28.882;2024-03-02T14:14:02;21.63;;;9.75;;
71856;SDS011;63344;46.980;28.882;2024-03-02T14:16:30;16.63;;;7.88;;
71856;SDS011;63344;46.980;28.882;2024-03-02T14:18:57;23.52;;;9.95;;
71856;SDS011;63344;46.980;28.882;2024-03-02T14:21:26;20.10;;;9.80;;
71856;SDS011;63344;46.980;28.882;2024-03-02T14:23:53;20.75;;;9.48;;
71856;SDS011;63344;46.980;28.882;2024-03-02T14:26:21;25.58;;;9.88;;
71856;SDS011;63344;46.980;28.882;2024-03-02T14:28:48;27.42;;;10.18;;
71856;SDS011;63344;46.980;28.882;2024-03-02T14:31:18;19.17;;;8.30;;
71856;SDS011;63344;46.980;28.882;2024-03-02T14:33:46;22.08;;;9.68;;
71856;SDS011;63344;46.980;28.882;2024-03-02T14:36:14;22.45;;;10.07;;
71856;SDS011;63344;46.980;28.882;2024-03-02T14:38:41;18.73;;;8.40;;
71856;SDS011;63344;46.980;28.882;2024-03-02T14:41:09;22.42;;;9.55;;
71856;SDS011;63344;46.980;28.882;2024-03-02T14:43:37;23.60;;;10.20;;
71856;SDS011;63344;46.980;28.882;2024-03-02T14:46:06;23.98;;;10.15;;
71856;SDS011;63344;46.980;28.882;2024-03-02T14:48:36;24.42;;;10.40;;
71856;SDS011;63344;46.980;28.882;2024-03-02T14:51:05;21.98;;;8.70;;
71856;SDS011;63344;46.980;28.882;2024-03-02T14:53:33;26.20;;;11.60;;
71856;SDS011;63344;46.980;28.882;2024-03-02T14:56:00;24.23;;;10.85;;
71856;SDS011;63344;46.980;28.882;2024-03-02T14:58:28;27.63;;;12.02;;
71856;SDS011;63344;46.980;28.882;2024-03-02T15:00:58;34.30;;;13.32;;
71856;SDS011;63344;46.980;28.882;2024-03-02T15:03:25;27.70;;;12.82;;
71856;SDS011;63344;46.980;28.882;2024-03-02T15:05:56;27.25;;;12.10;;
71856;SDS011;63344;46.980;28.882;2024-03-02T15:08:24;30.30;;;11.57;;
71856;SDS011;63344;46.980;28.882;2024-03-02T15:10:51;28.15;;;11.05;;
71856;SDS011;63344;46.980;28.882;2024-03-02T15:13:19;26.65;;;12.60;;
71856;SDS011;63344;46.980;28.882;2024-03-02T15:15:51;27.00;;;12.63;;
71856;SDS011;63344;46.980;28.882;2024-03-02T15:18:57;27.13;;;11.38;;
71856;SDS011;63344;46.980;28.882;2024-03-02T15:21:24;28.15;;;11.32;;
71856;SDS011;63344;46.980;28.882;2024-03-02T15:23:51;26.13;;;11.93;;
71856;SDS011;63344;46.980;28.882;2024-03-02T15:26:19;30.92;;;12.20;;
71856;SDS011;63344;46.980;28.882;2024-03-02T15:28:46;32.08;;;12.75;;
71856;SDS011;63344;46.980;28.882;2024-03-02T15:31:14;36.75;;;13.65;;
71856;SDS011;63344;46.980;28.882;2024-03-02T15:33:41;35.28;;;14.45;;
71856;SDS011;63344;46.980;28.882;2024-03-02T15:36:12;35.60;;;15.10;;
71856;SDS011;63344;46.980;28.882;2024-03-02T15:38:39;35.03;;;14.80;;
71856;SDS011;63344;46.980;28.882;2024-03-02T15:41:08;34.95;;;13.98;;
71856;SDS011;63344;46.980;28.882;2024-03-02T15:43:36;36.85;;;15.00;;
71856;SDS011;63344;46.980;28.882;2024-03-02T15:46:06;31.60;;;14.77;;
71856;SDS011;63344;46.980;28.882;2024-03-02T15:48:35;37.25;;;14.52;;
71856;SDS011;63344;46.980;28.882;2024-03-02T15:51:05;33.22;;;13.57;;
71856;SDS011;63344;46.980;28.882;2024-03-02T15:53:32;28.15;;;13.18;;
71856;SDS011;63344;46.980;28.882;2024-03-02T15:56:00;32.40;;;13.45;;
71856;SDS011;63344;46.980;28.882;2024-03-02T15:58:30;26.38;;;11.90;;
71856;SDS011;63344;46.980;28.882;2024-03-02T16:00:57;28.02;;;12.38;;
71856;SDS011;63344;46.980;28.882;2024-03-02T16:03:25;30.27;;;14.18;;
71856;SDS011;63344;46.980;28.882;2024-03-02T16:05:53;31.15;;;13.73;;
71856;SDS011;63344;46.980;28.882;2024-03-02T16:08:22;36.30;;;15.13;;
71856;SDS011;63344;46.980;28.882;2024-03-02T16:10:50;32.40;;;14.55;;
71856;SDS011;63344;46.980;28.882;2024-03-02T16:13:18;38.92;;;15.90;;
71856;SDS011;63344;46.980;28.882;2024-03-02T16:16:01;40.88;;;17.60;;
71856;SDS011;63344;46.980;28.882;2024-03-02T16:18:43;38.85;;;17.83;;
71856;SDS011;63344;46.980;28.882;2024-03-02T16:21:13;39.33;;;17.88;;
71856;SDS011;63344;46.980;28.882;2024-03-02T16:23:40;38.25;;;17.20;;
71856;SDS011;63344;46.980;28.882;2024-03-02T16:26:23;53.08;;;17.02;;
71856;SDS011;63344;46.980;28.882;2024-03-02T16:28:59;63.67;;;19.13;;
71856;SDS011;63344;46.980;28.882;2024-03-02T16:31:27;63.88;;;19.20;;
71856;SDS011;63344;46.980;28.882;2024-03-02T16:34:00;49.47;;;16.80;;
71856;SDS011;63344;46.980;28.882;2024-03-02T16:37:07;36.67;;;14.75;;
71856;SDS011;63344;46.980;28.882;2024-03-02T16:39:36;52.05;;;17.50;;
71856;SDS011;63344;46.980;28.882;2024-03-02T16:42:11;48.90;;;14.88;;
71856;SDS011;63344;46.980;28.882;2024-03-02T16:44:39;45.60;;;15.40;;
71856;SDS011;63344;46.980;28.882;2024-03-02T16:47:08;35.53;;;14.55;;
71856;SDS011;63344;46.980;28.882;2024-03-02T16:52:41;38.67;;;14.82;;
71856;SDS011;63344;46.980;28.882;2024-03-02T16:55:11;39.80;;;16.00;;
71856;SDS011;63344;46.980;28.882;2024-03-02T16:57:40;35.35;;;16.05;;
71856;SDS011;63344;46.980;28.882;2024-03-02T17:00:07;38.20;;;16.40;;
71856;SDS011;63344;46.980;28.882;2024-03-02T17:02:36;41.70;;;15.95;;
71856;SDS011;63344;46.980;28.882;2024-03-02T17:05:03;41.33;;;15.57;;
71856;SDS011;63344;46.980;28.882;2024-03-02T17:07:31;46.58;;;17.27;;
71856;SDS011;63344;46.980;28.882;2024-03-02T17:10:01;42.55;;;18.05;;
71856;SDS011;63344;46.980;28.882;2024-03-02T17:12:34;35.88;;;17.10;;
71856;SDS011;63344;46.980;28.882;2024-03-02T17:15:01;35.13;;;16.30;;
71856;SDS011;63344;46.980;28.882;2024-03-02T17:17:28;37.63;;;17.20;;
71856;SDS011;63344;46.980;28.882;2024-03-02T17:19:56;43.40;;;17.13;;
71856;SDS011;63344;46.980;28.882;2024-03-02T17:23:04;41.42;;;18.38;;
71856;SDS011;63344;46.980;28.882;2024-03-02T17:25:32;44.92;;;19.10;;